METAR AND TAF INFORMATION
METAR FOR KLEB
ADDS - METARS form results

(1020 UTC 20 October 2019)
Data provider http://aviationweather.gov/metar/data/
 
METAR text: KLEB 201011Z 00000KT 1/4SM FG VV001 01/M01 A3006 RMK AO2 T00061011
Conditions at: KLEB (LEBANON , NH, US) observed 1011 UTC 20 October 2019
Temperature: 0.6°C (33°F)
Dewpoint: -1.1°C (30°F) [RH = 88%]
Pressure (altimeter): 30.06 inches Hg (1018.0 mb)
Winds: calm
Visibility: 0.25 miles (0.40 km)
Ceiling: indefinite ceiling with vertical visibility of 100 feet AGL
Clouds: obscured sky
Weather: FG  (fog)

METAR text: KLEB 200953Z 00000KT 1/2SM FG VV001 01/M01 A3007 RMK AO2 SLP185 T00061006
Conditions at: KLEB (LEBANON , NH, US) observed 0953 UTC 20 October 2019
Temperature: 0.6°C (33°F)
Dewpoint: -0.6°C (31°F) [RH = 92%]
Pressure (altimeter): 30.07 inches Hg (1018.4 mb)
[Sea-level pressure: 1018.5 mb]
Winds: calm
Visibility: 0.50 miles (0.80 km)
Ceiling: indefinite ceiling with vertical visibility of 100 feet AGL
Clouds: obscured sky
Weather: FG  (fog)

METAR text: KLEB 200927Z AUTO 00000KT 1/2SM FG VV001 01/M01 A3007 RMK AO2 T00061011
Conditions at: KLEB (LEBANON , NH, US) observed 0927 UTC 20 October 2019
Temperature: 0.6°C (33°F)
Dewpoint: -1.1°C (30°F) [RH = 88%]
Pressure (altimeter): 30.07 inches Hg (1018.4 mb)
Winds: calm
Visibility: 0.50 miles (0.80 km)
Ceiling: indefinite ceiling with vertical visibility of 100 feet AGL
Clouds: obscured sky
Weather: FG  (fog)

Forecast for: KLEB (LEBANON , NH, US)
Text: KLEB 200855Z 2009/2106 00000KT 1/2SM FZFG OVC002
Forecast period: 0900 to 1300 UTC 20 October 2019
Forecast type: FROM: standard forecast or significant change
Winds: calm
Visibility: 0.50 miles (0.80 km)
Ceiling: 200 feet AGL
Clouds: overcast cloud deck at 200 feet AGL
Weather: FZFG  (freezing fog)
Text: FM201300 00000KT P6SM SKC
Forecast period: 1300 UTC 20 October 2019 to 0600 UTC 21 October 2019
Forecast type: FROM: standard forecast or significant change
Winds: calm
Visibility: 6 or more miles 10+ km)
Clouds: clear skies
Weather: no significant weather forecast for this period

 AIRPORT MAP

 RUNWAY INFORMATION
Runway 07 Runway length 5496 ft Runway width 100 ft
Runway elevation 562 ft Runway displaced threshold 0 ft Runway heading 59
Runway 25 Runway length 5496 ft Runway width 100 ft
Runway elevation 574 ft Runway displaced threshold 0 ft Runway heading 239
Runway 18 Runway length 5200 ft Runway width 100 ft
Runway elevation 563 ft Runway displaced threshold 0 ft Runway heading 168
Runway 36 Runway length 5200 ft Runway width 100 ft
Runway elevation 603 ft Runway displaced threshold 0 ft Runway heading 348

 AIRPORT FREQUENCIES
Type A/D Name BOSTON APP Frequency 134.7 MHZ
Type ASOS Name ASOS Frequency 118.65 MHZ
Type ATIS Name ATIS Frequency 118.65 MHZ
Type CTAF Name CTAF Frequency 125.95 MHZ
Type GND Name GND Frequency 121.6 MHZ
Type RDO Name BANGOR RDO Frequency 122.2 MHZ
Type TWR Name TWR Frequency 125.95 MHZ
Type UNIC Name UNICOM Frequency 122.95 MHZ

 AIRPORT NEAR NAVIGATION AIDS
Type NDB Name White River Frequency 379 KHZ
Type VOR-DME Name Lebanon Frequency 113700 KHZ



Copyright © 2019 Cape Air Virtual

CMS powered by VAM [v2.6.2]